sensor_id;sensor_type;location;lat;lon;timestamp;P1;durP1;ratioP1;P2;durP2;ratioP2
21354;SDS011;10835;50.148;19.760;2022-10-15T00:01:44;24.65;;;12.43;;
21354;SDS011;10835;50.148;19.760;2022-10-15T00:04:12;23.10;;;12.82;;
21354;SDS011;10835;50.148;19.760;2022-10-15T00:06:42;22.30;;;11.40;;
21354;SDS011;10835;50.148;19.760;2022-10-15T00:09:09;19.67;;;11.38;;
21354;SDS011;10835;50.148;19.760;2022-10-15T00:11:37;19.67;;;10.52;;
21354;SDS011;10835;50.148;19.760;2022-10-15T00:14:06;19.45;;;11.65;;
21354;SDS011;10835;50.148;19.760;2022-10-15T00:16:34;20.15;;;12.43;;
21354;SDS011;10835;50.148;19.760;2022-10-15T00:19:02;20.38;;;11.10;;
21354;SDS011;10835;50.148;19.760;2022-10-15T00:21:30;20.67;;;11.30;;
21354;SDS011;10835;50.148;19.760;2022-10-15T00:23:59;17.17;;;9.68;;
21354;SDS011;10835;50.148;19.760;2022-10-15T00:26:28;19.52;;;12.07;;
21354;SDS011;10835;50.148;19.760;2022-10-15T00:28:57;24.08;;;12.23;;
21354;SDS011;10835;50.148;19.760;2022-10-15T00:31:26;47.08;;;20.42;;
21354;SDS011;10835;50.148;19.760;2022-10-15T00:33:57;29.77;;;14.15;;
21354;SDS011;10835;50.148;19.760;2022-10-15T00:36:29;24.25;;;12.27;;
21354;SDS011;10835;50.148;19.760;2022-10-15T00:38:59;20.55;;;11.20;;
21354;SDS011;10835;50.148;19.760;2022-10-15T00:41:29;19.15;;;11.10;;
21354;SDS011;10835;50.148;19.760;2022-10-15T00:43:58;23.67;;;12.70;;
21354;SDS011;10835;50.148;19.760;2022-10-15T00:46:29;17.60;;;11.68;;
21354;SDS011;10835;50.148;19.760;2022-10-15T00:49:02;20.42;;;11.23;;
21354;SDS011;10835;50.148;19.760;2022-10-15T00:51:39;17.58;;;10.98;;
21354;SDS011;10835;50.148;19.760;2022-10-15T00:54:10;24.70;;;12.50;;
21354;SDS011;10835;50.148;19.760;2022-10-15T00:56:40;22.90;;;11.93;;
21354;SDS011;10835;50.148;19.760;2022-10-15T00:59:11;19.65;;;12.15;;
21354;SDS011;10835;50.148;19.760;2022-10-15T01:01:40;22.02;;;12.75;;
21354;SDS011;10835;50.148;19.760;2022-10-15T01:04:10;19.05;;;12.00;;
21354;SDS011;10835;50.148;19.760;2022-10-15T01:06:39;16.73;;;10.45;;
21354;SDS011;10835;50.148;19.760;2022-10-15T01:09:07;19.17;;;11.20;;
21354;SDS011;10835;50.148;19.760;2022-10-15T01:11:38;17.85;;;10.90;;
21354;SDS011;10835;50.148;19.760;2022-10-15T01:14:16;18.20;;;10.43;;
21354;SDS011;10835;50.148;19.760;2022-10-15T01:16:58;22.40;;;11.57;;
21354;SDS011;10835;50.148;19.760;2022-10-15T01:19:34;17.70;;;10.35;;
21354;SDS011;10835;50.148;19.760;2022-10-15T01:22:15;19.10;;;10.38;;
21354;SDS011;10835;50.148;19.760;2022-10-15T01:24:54;20.15;;;13.10;;
21354;SDS011;10835;50.148;19.760;2022-10-15T01:27:33;21.85;;;11.82;;
21354;SDS011;10835;50.148;19.760;2022-10-15T01:33:01;16.38;;;10.05;;
21354;SDS011;10835;50.148;19.760;2022-10-15T01:35:37;20.33;;;11.30;;
21354;SDS011;10835;50.148;19.760;2022-10-15T01:38:29;17.42;;;9.82;;
21354;SDS011;10835;50.148;19.760;2022-10-15T01:41:07;20.75;;;10.77;;
21354;SDS011;10835;50.148;19.760;2022-10-15T01:43:38;20.33;;;11.63;;
21354;SDS011;10835;50.148;19.760;2022-10-15T01:46:26;20.25;;;11.90;;
21354;SDS011;10835;50.148;19.760;2022-10-15T01:49:00;20.95;;;11.35;;
21354;SDS011;10835;50.148;19.760;2022-10-15T01:51:30;27.15;;;12.88;;
21354;SDS011;10835;50.148;19.760;2022-10-15T01:54:01;20.15;;;11.38;;
21354;SDS011;10835;50.148;19.760;2022-10-15T01:56:33;16.50;;;9.20;;
21354;SDS011;10835;50.148;19.760;2022-10-15T01:59:02;19.92;;;10.10;;
21354;SDS011;10835;50.148;19.760;2022-10-15T02:01:36;16.67;;;9.40;;
21354;SDS011;10835;50.148;19.760;2022-10-15T02:04:15;13.95;;;9.07;;
21354;SDS011;10835;50.148;19.760;2022-10-15T02:06:48;16.13;;;10.18;;
21354;SDS011;10835;50.148;19.760;2022-10-15T02:09:23;17.45;;;10.18;;
21354;SDS011;10835;50.148;19.760;2022-10-15T02:11:59;14.93;;;9.93;;
21354;SDS011;10835;50.148;19.760;2022-10-15T02:14:39;19.05;;;11.15;;
21354;SDS011;10835;50.148;19.760;2022-10-15T02:17:16;16.45;;;10.18;;
21354;SDS011;10835;50.148;19.760;2022-10-15T02:19:48;22.42;;;10.45;;
21354;SDS011;10835;50.148;19.760;2022-10-15T02:22:22;18.58;;;11.48;;
21354;SDS011;10835;50.148;19.760;2022-10-15T02:24:56;16.42;;;9.60;;
21354;SDS011;10835;50.148;19.760;2022-10-15T02:27:31;18.35;;;11.18;;
21354;SDS011;10835;50.148;19.760;2022-10-15T02:30:00;17.35;;;9.65;;
21354;SDS011;10835;50.148;19.760;2022-10-15T02:32:34;17.45;;;9.50;;
21354;SDS011;10835;50.148;19.760;2022-10-15T02:35:06;18.13;;;10.55;;
21354;SDS011;10835;50.148;19.760;2022-10-15T02:37:41;15.10;;;9.65;;
21354;SDS011;10835;50.148;19.760;2022-10-15T02:40:16;16.58;;;9.10;;
21354;SDS011;10835;50.148;19.760;2022-10-15T02:42:45;19.08;;;10.18;;
21354;SDS011;10835;50.148;19.760;2022-10-15T02:45:15;12.77;;;8.43;;
21354;SDS011;10835;50.148;19.760;2022-10-15T02:47:44;16.67;;;9.88;;
21354;SDS011;10835;50.148;19.760;2022-10-15T02:50:13;17.35;;;10.18;;
21354;SDS011;10835;50.148;19.760;2022-10-15T02:52:41;16.45;;;9.50;;
21354;SDS011;10835;50.148;19.760;2022-10-15T02:55:10;13.20;;;8.27;;
21354;SDS011;10835;50.148;19.760;2022-10-15T02:57:38;19.85;;;9.10;;
21354;SDS011;10835;50.148;19.760;2022-10-15T03:00:07;13.68;;;9.05;;
21354;SDS011;10835;50.148;19.760;2022-10-15T03:02:38;17.77;;;11.13;;
21354;SDS011;10835;50.148;19.760;2022-10-15T03:05:08;15.82;;;9.18;;
21354;SDS011;10835;50.148;19.760;2022-10-15T03:07:36;19.58;;;9.55;;
21354;SDS011;10835;50.148;19.760;2022-10-15T03:10:04;14.70;;;8.73;;
21354;SDS011;10835;50.148;19.760;2022-10-15T03:12:33;13.15;;;8.15;;
21354;SDS011;10835;50.148;19.760;2022-10-15T03:15:03;15.60;;;8.55;;
21354;SDS011;10835;50.148;19.760;2022-10-15T03:17:33;20.73;;;11.82;;
21354;SDS011;10835;50.148;19.760;2022-10-15T03:20:02;21.50;;;9.55;;
21354;SDS011;10835;50.148;19.760;2022-10-15T03:22:35;14.07;;;8.52;;
21354;SDS011;10835;50.148;19.760;2022-10-15T03:25:04;17.75;;;9.18;;
21354;SDS011;10835;50.148;19.760;2022-10-15T03:27:32;13.93;;;8.40;;
21354;SDS011;10835;50.148;19.760;2022-10-15T03:30:00;13.45;;;8.05;;
21354;SDS011;10835;50.148;19.760;2022-10-15T03:32:31;14.27;;;8.77;;
21354;SDS011;10835;50.148;19.760;2022-10-15T03:35:03;14.10;;;8.30;;
21354;SDS011;10835;50.148;19.760;2022-10-15T03:37:36;15.75;;;9.25;;
21354;SDS011;10835;50.148;19.760;2022-10-15T03:40:07;16.98;;;8.73;;
21354;SDS011;10835;50.148;19.760;2022-10-15T03:42:40;13.75;;;7.93;;
21354;SDS011;10835;50.148;19.760;2022-10-15T03:45:10;14.15;;;7.60;;
21354;SDS011;10835;50.148;19.760;2022-10-15T03:47:38;17.00;;;9.20;;
21354;SDS011;10835;50.148;19.760;2022-10-15T03:50:06;11.98;;;8.13;;
21354;SDS011;10835;50.148;19.760;2022-10-15T03:52:36;13.57;;;8.07;;
21354;SDS011;10835;50.148;19.760;2022-10-15T03:55:05;17.98;;;8.50;;
21354;SDS011;10835;50.148;19.760;2022-10-15T03:57:35;12.05;;;7.70;;
21354;SDS011;10835;50.148;19.760;2022-10-15T04:00:05;12.15;;;7.68;;
21354;SDS011;10835;50.148;19.760;2022-10-15T04:02:37;13.10;;;7.65;;
21354;SDS011;10835;50.148;19.760;2022-10-15T04:05:16;12.05;;;7.03;;
21354;SDS011;10835;50.148;19.760;2022-10-15T04:07:52;13.43;;;7.25;;
21354;SDS011;10835;50.148;19.760;2022-10-15T04:10:20;16.27;;;8.57;;
21354;SDS011;10835;50.148;19.760;2022-10-15T04:12:48;11.30;;;7.38;;
21354;SDS011;10835;50.148;19.760;2022-10-15T04:15:17;14.93;;;7.85;;
21354;SDS011;10835;50.148;19.760;2022-10-15T04:17:52;11.70;;;7.43;;
21354;SDS011;10835;50.148;19.760;2022-10-15T04:20:22;12.10;;;7.10;;
21354;SDS011;10835;50.148;19.760;2022-10-15T04:22:52;13.40;;;7.80;;
21354;SDS011;10835;50.148;19.760;2022-10-15T04:25:20;16.33;;;8.85;;
21354;SDS011;10835;50.148;19.760;2022-10-15T04:27:48;14.30;;;8.00;;
21354;SDS011;10835;50.148;19.760;2022-10-15T04:30:17;15.70;;;8.30;;
21354;SDS011;10835;50.148;19.760;2022-10-15T04:32:52;12.15;;;7.70;;
21354;SDS011;10835;50.148;19.760;2022-10-15T04:35:21;11.82;;;7.05;;
21354;SDS011;10835;50.148;19.760;2022-10-15T04:38:04;12.57;;;7.85;;
21354;SDS011;10835;50.148;19.760;2022-10-15T04:40:56;12.48;;;8.25;;
21354;SDS011;10835;50.148;19.760;2022-10-15T04:43:30;12.82;;;7.57;;
21354;SDS011;10835;50.148;19.760;2022-10-15T04:46:03;11.77;;;7.07;;
21354;SDS011;10835;50.148;19.760;2022-10-15T04:48:32;16.60;;;8.40;;
21354;SDS011;10835;50.148;19.760;2022-10-15T04:51:10;13.70;;;7.32;;
21354;SDS011;10835;50.148;19.760;2022-10-15T04:54:00;16.35;;;8.30;;
21354;SDS011;10835;50.148;19.760;2022-10-15T04:56:29;15.43;;;8.10;;
21354;SDS011;10835;50.148;19.760;2022-10-15T04:58:58;14.90;;;8.30;;
21354;SDS011;10835;50.148;19.760;2022-10-15T05:01:31;11.73;;;7.00;;
21354;SDS011;10835;50.148;19.760;2022-10-15T05:04:05;14.00;;;7.47;;
21354;SDS011;10835;50.148;19.760;2022-10-15T05:06:35;10.95;;;6.25;;
21354;SDS011;10835;50.148;19.760;2022-10-15T05:09:18;11.73;;;7.15;;
21354;SDS011;10835;50.148;19.760;2022-10-15T05:11:48;12.80;;;6.43;;
21354;SDS011;10835;50.148;19.760;2022-10-15T05:14:16;13.05;;;7.25;;
21354;SDS011;10835;50.148;19.760;2022-10-15T05:17:00;13.80;;;7.13;;
21354;SDS011;10835;50.148;19.760;2022-10-15T05:19:33;13.80;;;7.00;;
21354;SDS011;10835;50.148;19.760;2022-10-15T05:22:05;13.93;;;7.82;;
21354;SDS011;10835;50.148;19.760;2022-10-15T05:24:40;12.63;;;7.72;;
21354;SDS011;10835;50.148;19.760;2022-10-15T05:27:29;11.90;;;7.55;;
21354;SDS011;10835;50.148;19.760;2022-10-15T05:29:58;12.82;;;7.50;;
21354;SDS011;10835;50.148;19.760;2022-10-15T05:32:43;10.90;;;6.82;;
21354;SDS011;10835;50.148;19.760;2022-10-15T05:35:15;10.35;;;6.22;;
21354;SDS011;10835;50.148;19.760;2022-10-15T05:38:02;14.38;;;7.75;;
21354;SDS011;10835;50.148;19.760;2022-10-15T05:40:32;12.80;;;8.13;;
21354;SDS011;10835;50.148;19.760;2022-10-15T05:43:06;14.30;;;7.93;;
21354;SDS011;10835;50.148;19.760;2022-10-15T05:45:36;11.55;;;7.18;;
21354;SDS011;10835;50.148;19.760;2022-10-15T05:48:05;13.68;;;7.97;;
21354;SDS011;10835;50.148;19.760;2022-10-15T05:50:34;13.43;;;7.90;;
21354;SDS011;10835;50.148;19.760;2022-10-15T05:53:06;14.73;;;8.52;;
21354;SDS011;10835;50.148;19.760;2022-10-15T05:55:44;11.95;;;7.38;;
21354;SDS011;10835;50.148;19.760;2022-10-15T05:58:12;12.65;;;7.05;;
21354;SDS011;10835;50.148;19.760;2022-10-15T06:00:40;17.08;;;7.85;;
21354;SDS011;10835;50.148;19.760;2022-10-15T06:03:10;10.98;;;6.55;;
21354;SDS011;10835;50.148;19.760;2022-10-15T06:05:39;11.82;;;7.68;;
21354;SDS011;10835;50.148;19.760;2022-10-15T06:08:07;16.15;;;9.43;;
21354;SDS011;10835;50.148;19.760;2022-10-15T06:10:35;14.32;;;8.77;;
21354;SDS011;10835;50.148;19.760;2022-10-15T06:13:05;15.82;;;8.98;;
21354;SDS011;10835;50.148;19.760;2022-10-15T06:15:37;18.42;;;9.95;;
21354;SDS011;10835;50.148;19.760;2022-10-15T06:18:08;19.00;;;9.30;;
21354;SDS011;10835;50.148;19.760;2022-10-15T06:20:36;13.57;;;8.95;;
21354;SDS011;10835;50.148;19.760;2022-10-15T06:23:05;15.48;;;9.65;;
21354;SDS011;10835;50.148;19.760;2022-10-15T06:25:34;17.65;;;9.63;;
21354;SDS011;10835;50.148;19.760;2022-10-15T06:28:03;19.75;;;10.45;;
21354;SDS011;10835;50.148;19.760;2022-10-15T06:30:40;17.63;;;10.07;;
21354;SDS011;10835;50.148;19.760;2022-10-15T06:33:08;17.35;;;9.95;;
21354;SDS011;10835;50.148;19.760;2022-10-15T06:35:37;20.52;;;10.52;;
21354;SDS011;10835;50.148;19.760;2022-10-15T06:38:06;21.88;;;10.75;;
21354;SDS011;10835;50.148;19.760;2022-10-15T06:40:34;26.67;;;12.55;;
21354;SDS011;10835;50.148;19.760;2022-10-15T06:43:04;22.77;;;12.00;;
21354;SDS011;10835;50.148;19.760;2022-10-15T06:45:35;23.50;;;13.27;;
21354;SDS011;10835;50.148;19.760;2022-10-15T06:48:08;20.67;;;10.85;;
21354;SDS011;10835;50.148;19.760;2022-10-15T06:50:37;20.90;;;10.68;;
21354;SDS011;10835;50.148;19.760;2022-10-15T06:53:05;23.00;;;12.02;;
21354;SDS011;10835;50.148;19.760;2022-10-15T06:55:34;25.00;;;13.93;;
21354;SDS011;10835;50.148;19.760;2022-10-15T06:58:06;26.60;;;13.77;;
21354;SDS011;10835;50.148;19.760;2022-10-15T07:00:34;22.08;;;11.73;;
21354;SDS011;10835;50.148;19.760;2022-10-15T07:03:04;21.15;;;11.93;;
21354;SDS011;10835;50.148;19.760;2022-10-15T07:05:33;24.40;;;11.60;;
21354;SDS011;10835;50.148;19.760;2022-10-15T07:08:02;19.02;;;11.00;;
21354;SDS011;10835;50.148;19.760;2022-10-15T07:10:30;16.88;;;10.35;;
21354;SDS011;10835;50.148;19.760;2022-10-15T07:12:58;21.48;;;10.50;;
21354;SDS011;10835;50.148;19.760;2022-10-15T07:15:28;19.40;;;9.75;;
21354;SDS011;10835;50.148;19.760;2022-10-15T07:17:56;16.20;;;10.15;;
21354;SDS011;10835;50.148;19.760;2022-10-15T07:20:27;15.77;;;9.23;;
21354;SDS011;10835;50.148;19.760;2022-10-15T07:22:57;17.25;;;10.50;;
21354;SDS011;10835;50.148;19.760;2022-10-15T07:25:29;18.38;;;10.30;;
21354;SDS011;10835;50.148;19.760;2022-10-15T07:27:58;14.20;;;8.85;;
21354;SDS011;10835;50.148;19.760;2022-10-15T07:30:27;17.92;;;9.52;;
21354;SDS011;10835;50.148;19.760;2022-10-15T07:32:55;15.70;;;9.30;;
21354;SDS011;10835;50.148;19.760;2022-10-15T07:47:44;17.13;;;10.35;;
21354;SDS011;10835;50.148;19.760;2022-10-15T07:50:14;15.65;;;10.32;;
21354;SDS011;10835;50.148;19.760;2022-10-15T07:52:43;15.65;;;9.90;;
21354;SDS011;10835;50.148;19.760;2022-10-15T07:55:11;16.45;;;10.27;;
21354;SDS011;10835;50.148;19.760;2022-10-15T07:57:42;17.17;;;10.32;;
21354;SDS011;10835;50.148;19.760;2022-10-15T08:00:10;15.98;;;9.32;;
21354;SDS011;10835;50.148;19.760;2022-10-15T08:02:39;15.25;;;10.00;;
21354;SDS011;10835;50.148;19.760;2022-10-15T08:05:08;17.05;;;10.27;;
21354;SDS011;10835;50.148;19.760;2022-10-15T08:07:36;14.65;;;9.40;;
21354;SDS011;10835;50.148;19.760;2022-10-15T08:10:09;15.00;;;9.55;;
21354;SDS011;10835;50.148;19.760;2022-10-15T08:12:38;19.67;;;10.23;;
21354;SDS011;10835;50.148;19.760;2022-10-15T08:15:07;19.77;;;9.77;;
21354;SDS011;10835;50.148;19.760;2022-10-15T08:17:35;16.95;;;10.27;;
21354;SDS011;10835;50.148;19.760;2022-10-15T08:20:04;14.85;;;10.00;;
21354;SDS011;10835;50.148;19.760;2022-10-15T08:22:36;14.30;;;9.82;;
21354;SDS011;10835;50.148;19.760;2022-10-15T08:25:04;16.73;;;9.95;;
21354;SDS011;10835;50.148;19.760;2022-10-15T08:27:33;15.15;;;9.05;;
21354;SDS011;10835;50.148;19.760;2022-10-15T08:30:02;14.45;;;9.07;;
21354;SDS011;10835;50.148;19.760;2022-10-15T08:32:31;16.48;;;8.93;;
21354;SDS011;10835;50.148;19.760;2022-10-15T08:34:59;17.00;;;9.07;;
21354;SDS011;10835;50.148;19.760;2022-10-15T08:37:30;18.63;;;9.70;;
21354;SDS011;10835;50.148;19.760;2022-10-15T08:40:00;16.30;;;10.07;;
21354;SDS011;10835;50.148;19.760;2022-10-15T08:42:30;17.25;;;9.32;;
21354;SDS011;10835;50.148;19.760;2022-10-15T08:45:02;13.40;;;9.23;;
21354;SDS011;10835;50.148;19.760;2022-10-15T08:47:39;14.98;;;9.73;;
21354;SDS011;10835;50.148;19.760;2022-10-15T08:50:12;15.50;;;8.95;;
21354;SDS011;10835;50.148;19.760;2022-10-15T08:52:47;16.58;;;9.57;;
21354;SDS011;10835;50.148;19.760;2022-10-15T08:55:18;15.45;;;8.88;;
21354;SDS011;10835;50.148;19.760;2022-10-15T08:57:54;16.45;;;9.45;;
21354;SDS011;10835;50.148;19.760;2022-10-15T09:00:28;14.90;;;8.90;;
21354;SDS011;10835;50.148;19.760;2022-10-15T09:03:02;14.38;;;8.95;;
21354;SDS011;10835;50.148;19.760;2022-10-15T09:05:39;14.85;;;9.52;;
21354;SDS011;10835;50.148;19.760;2022-10-15T09:08:12;14.23;;;9.23;;
21354;SDS011;10835;50.148;19.760;2022-10-15T09:10:50;14.60;;;8.85;;
21354;SDS011;10835;50.148;19.760;2022-10-15T09:13:23;11.52;;;7.90;;
21354;SDS011;10835;50.148;19.760;2022-10-15T09:15:55;12.50;;;8.00;;
21354;SDS011;10835;50.148;19.760;2022-10-15T09:18:30;11.02;;;8.27;;
21354;SDS011;10835;50.148;19.760;2022-10-15T09:21:00;14.23;;;8.68;;
21354;SDS011;10835;50.148;19.760;2022-10-15T09:23:31;13.40;;;7.90;;
21354;SDS011;10835;50.148;19.760;2022-10-15T09:26:02;14.15;;;7.57;;
21354;SDS011;10835;50.148;19.760;2022-10-15T09:28:37;13.60;;;7.68;;
21354;SDS011;10835;50.148;19.760;2022-10-15T09:31:11;10.35;;;7.38;;
21354;SDS011;10835;50.148;19.760;2022-10-15T09:33:44;14.07;;;8.20;;
21354;SDS011;10835;50.148;19.760;2022-10-15T09:36:18;12.10;;;7.75;;
21354;SDS011;10835;50.148;19.760;2022-10-15T09:39:00;11.25;;;7.88;;
21354;SDS011;10835;50.148;19.760;2022-10-15T09:41:42;11.55;;;7.50;;
21354;SDS011;10835;50.148;19.760;2022-10-15T09:44:19;12.38;;;8.43;;
21354;SDS011;10835;50.148;19.760;2022-10-15T09:46:50;15.48;;;8.65;;
21354;SDS011;10835;50.148;19.760;2022-10-15T09:49:19;11.45;;;7.97;;
21354;SDS011;10835;50.148;19.760;2022-10-15T09:51:54;14.88;;;7.85;;
21354;SDS011;10835;50.148;19.760;2022-10-15T09:54:29;12.70;;;8.02;;
21354;SDS011;10835;50.148;19.760;2022-10-15T09:57:06;11.63;;;7.53;;
21354;SDS011;10835;50.148;19.760;2022-10-15T09:59:35;14.77;;;7.95;;
21354;SDS011;10835;50.148;19.760;2022-10-15T10:02:09;13.07;;;7.03;;
21354;SDS011;10835;50.148;19.760;2022-10-15T10:04:46;12.95;;;7.60;;
21354;SDS011;10835;50.148;19.760;2022-10-15T10:07:30;12.07;;;7.38;;
21354;SDS011;10835;50.148;19.760;2022-10-15T10:10:03;10.20;;;7.03;;
21354;SDS011;10835;50.148;19.760;2022-10-15T10:12:34;13.25;;;6.82;;
21354;SDS011;10835;50.148;19.760;2022-10-15T10:15:04;9.73;;;6.80;;
21354;SDS011;10835;50.148;19.760;2022-10-15T10:17:35;10.27;;;6.00;;
21354;SDS011;10835;50.148;19.760;2022-10-15T10:20:11;11.50;;;6.47;;
21354;SDS011;10835;50.148;19.760;2022-10-15T10:22:42;10.82;;;6.40;;
21354;SDS011;10835;50.148;19.760;2022-10-15T10:25:27;10.57;;;6.25;;
21354;SDS011;10835;50.148;19.760;2022-10-15T10:28:03;11.98;;;7.07;;
21354;SDS011;10835;50.148;19.760;2022-10-15T10:30:33;8.23;;;6.15;;
21354;SDS011;10835;50.148;19.760;2022-10-15T10:33:03;9.52;;;5.55;;
21354;SDS011;10835;50.148;19.760;2022-10-15T10:35:33;10.40;;;7.20;;
21354;SDS011;10835;50.148;19.760;2022-10-15T10:38:16;11.10;;;6.70;;
21354;SDS011;10835;50.148;19.760;2022-10-15T10:40:51;8.88;;;6.38;;
21354;SDS011;10835;50.148;19.760;2022-10-15T10:43:24;12.68;;;6.63;;
21354;SDS011;10835;50.148;19.760;2022-10-15T10:45:54;9.18;;;6.20;;
21354;SDS011;10835;50.148;19.760;2022-10-15T10:48:24;9.57;;;6.40;;
21354;SDS011;10835;50.148;19.760;2022-10-15T10:51:04;12.35;;;6.38;;
21354;SDS011;10835;50.148;19.760;2022-10-15T10:53:46;9.88;;;6.40;;
21354;SDS011;10835;50.148;19.760;2022-10-15T10:56:17;9.45;;;5.93;;
21354;SDS011;10835;50.148;19.760;2022-10-15T10:58:52;7.43;;;5.80;;
21354;SDS011;10835;50.148;19.760;2022-10-15T11:01:24;8.75;;;5.50;;
21354;SDS011;10835;50.148;19.760;2022-10-15T11:03:52;9.32;;;5.45;;
21354;SDS011;10835;50.148;19.760;2022-10-15T11:06:22;7.72;;;5.78;;
21354;SDS011;10835;50.148;19.760;2022-10-15T11:09:14;7.40;;;5.03;;
21354;SDS011;10835;50.148;19.760;2022-10-15T11:11:54;7.60;;;5.22;;
21354;SDS011;10835;50.148;19.760;2022-10-15T11:14:36;6.00;;;4.75;;
21354;SDS011;10835;50.148;19.760;2022-10-15T11:17:16;11.70;;;4.88;;
21354;SDS011;10835;50.148;19.760;2022-10-15T11:19:53;7.88;;;5.10;;
21354;SDS011;10835;50.148;19.760;2022-10-15T11:22:47;9.90;;;6.10;;
21354;SDS011;10835;50.148;19.760;2022-10-15T11:25:28;53.75;;;25.15;;
21354;SDS011;10835;50.148;19.760;2022-10-15T11:28:07;34.47;;;15.45;;
21354;SDS011;10835;50.148;19.760;2022-10-15T11:30:53;8.90;;;5.90;;
21354;SDS011;10835;50.148;19.760;2022-10-15T11:33:37;9.55;;;5.30;;
21354;SDS011;10835;50.148;19.760;2022-10-15T11:39:16;8.68;;;5.05;;
21354;SDS011;10835;50.148;19.760;2022-10-15T11:41:57;7.43;;;5.00;;
21354;SDS011;10835;50.148;19.760;2022-10-15T11:44:37;7.60;;;5.03;;
21354;SDS011;10835;50.148;19.760;2022-10-15T11:47:24;5.90;;;4.60;;
21354;SDS011;10835;50.148;19.760;2022-10-15T11:50:07;10.02;;;5.40;;
21354;SDS011;10835;50.148;19.760;2022-10-15T11:52:48;8.13;;;5.00;;
21354;SDS011;10835;50.148;19.760;2022-10-15T11:55:35;8.63;;;4.88;;
21354;SDS011;10835;50.148;19.760;2022-10-15T11:58:07;7.75;;;4.88;;
21354;SDS011;10835;50.148;19.760;2022-10-15T12:00:44;5.97;;;4.40;;
21354;SDS011;10835;50.148;19.760;2022-10-15T12:03:18;6.18;;;4.50;;
21354;SDS011;10835;50.148;19.760;2022-10-15T12:05:51;5.82;;;3.95;;
21354;SDS011;10835;50.148;19.760;2022-10-15T12:08:21;8.52;;;4.75;;
21354;SDS011;10835;50.148;19.760;2022-10-15T12:10:56;8.75;;;4.90;;
21354;SDS011;10835;50.148;19.760;2022-10-15T12:13:33;7.47;;;4.38;;
21354;SDS011;10835;50.148;19.760;2022-10-15T12:16:10;7.38;;;4.82;;
21354;SDS011;10835;50.148;19.760;2022-10-15T12:18:46;7.43;;;4.00;;
21354;SDS011;10835;50.148;19.760;2022-10-15T12:21:29;8.13;;;4.35;;
21354;SDS011;10835;50.148;19.760;2022-10-15T12:23:59;8.48;;;4.55;;
21354;SDS011;10835;50.148;19.760;2022-10-15T12:26:27;6.45;;;4.43;;
21354;SDS011;10835;50.148;19.760;2022-10-15T12:29:01;6.10;;;4.15;;
21354;SDS011;10835;50.148;19.760;2022-10-15T12:31:47;7.10;;;4.63;;
21354;SDS011;10835;50.148;19.760;2022-10-15T12:37:13;9.70;;;4.90;;
21354;SDS011;10835;50.148;19.760;2022-10-15T12:39:45;7.15;;;4.90;;
21354;SDS011;10835;50.148;19.760;2022-10-15T12:42:24;6.85;;;4.50;;
21354;SDS011;10835;50.148;19.760;2022-10-15T12:44:53;7.03;;;4.53;;
21354;SDS011;10835;50.148;19.760;2022-10-15T12:47:44;5.68;;;3.83;;
21354;SDS011;10835;50.148;19.760;2022-10-15T12:50:17;6.15;;;4.57;;
21354;SDS011;10835;50.148;19.760;2022-10-15T12:52:50;8.00;;;4.88;;
21354;SDS011;10835;50.148;19.760;2022-10-15T12:55:26;7.82;;;5.45;;
21354;SDS011;10835;50.148;19.760;2022-10-15T12:58:15;8.63;;;4.63;;
21354;SDS011;10835;50.148;19.760;2022-10-15T13:01:04;8.35;;;4.90;;
21354;SDS011;10835;50.148;19.760;2022-10-15T13:03:56;11.20;;;5.28;;
21354;SDS011;10835;50.148;19.760;2022-10-15T13:06:29;7.15;;;4.60;;
21354;SDS011;10835;50.148;19.760;2022-10-15T13:09:02;6.57;;;4.72;;
21354;SDS011;10835;50.148;19.760;2022-10-15T13:11:48;7.15;;;4.65;;
21354;SDS011;10835;50.148;19.760;2022-10-15T13:14:26;7.47;;;4.60;;
21354;SDS011;10835;50.148;19.760;2022-10-15T13:16:58;7.07;;;5.05;;
21354;SDS011;10835;50.148;19.760;2022-10-15T13:19:31;7.65;;;4.93;;
21354;SDS011;10835;50.148;19.760;2022-10-15T13:22:04;8.23;;;5.30;;
21354;SDS011;10835;50.148;19.760;2022-10-15T13:24:38;7.53;;;4.47;;
21354;SDS011;10835;50.148;19.760;2022-10-15T13:27:13;8.38;;;4.90;;
21354;SDS011;10835;50.148;19.760;2022-10-15T13:29:53;7.50;;;4.82;;
21354;SDS011;10835;50.148;19.760;2022-10-15T13:32:24;7.18;;;4.72;;
21354;SDS011;10835;50.148;19.760;2022-10-15T13:34:55;9.32;;;5.10;;
21354;SDS011;10835;50.148;19.760;2022-10-15T13:37:28;8.50;;;4.25;;
21354;SDS011;10835;50.148;19.760;2022-10-15T13:39:58;9.10;;;5.13;;
21354;SDS011;10835;50.148;19.760;2022-10-15T13:42:33;9.52;;;5.55;;
21354;SDS011;10835;50.148;19.760;2022-10-15T13:45:03;8.85;;;5.10;;
21354;SDS011;10835;50.148;19.760;2022-10-15T13:47:45;10.27;;;5.57;;
21354;SDS011;10835;50.148;19.760;2022-10-15T13:50:19;8.95;;;5.07;;
21354;SDS011;10835;50.148;19.760;2022-10-15T13:52:50;7.35;;;4.03;;
21354;SDS011;10835;50.148;19.760;2022-10-15T13:55:24;14.57;;;6.28;;
21354;SDS011;10835;50.148;19.760;2022-10-15T13:57:56;15.55;;;6.82;;
21354;SDS011;10835;50.148;19.760;2022-10-15T14:00:28;10.93;;;5.13;;
21354;SDS011;10835;50.148;19.760;2022-10-15T14:03:07;8.68;;;4.93;;
21354;SDS011;10835;50.148;19.760;2022-10-15T14:05:36;13.90;;;6.10;;
21354;SDS011;10835;50.148;19.760;2022-10-15T14:08:04;107.50;;;19.95;;
21354;SDS011;10835;50.148;19.760;2022-10-15T14:10:32;15.35;;;6.13;;
21354;SDS011;10835;50.148;19.760;2022-10-15T14:13:00;22.10;;;6.90;;
21354;SDS011;10835;50.148;19.760;2022-10-15T14:15:43;19.05;;;6.15;;
21354;SDS011;10835;50.148;19.760;2022-10-15T14:18:15;8.00;;;4.60;;
21354;SDS011;10835;50.148;19.760;2022-10-15T14:20:52;7.25;;;4.30;;
21354;SDS011;10835;50.148;19.760;2022-10-15T14:23:21;15.55;;;5.30;;
21354;SDS011;10835;50.148;19.760;2022-10-15T14:25:51;6.18;;;4.60;;
21354;SDS011;10835;50.148;19.760;2022-10-15T14:28:21;10.65;;;5.47;;
21354;SDS011;10835;50.148;19.760;2022-10-15T14:30:52;36.72;;;9.65;;
21354;SDS011;10835;50.148;19.760;2022-10-15T14:33:39;7.13;;;4.90;;
21354;SDS011;10835;50.148;19.760;2022-10-15T14:42:00;42.28;;;10.70;;
21354;SDS011;10835;50.148;19.760;2022-10-15T14:44:39;88.93;;;16.67;;
21354;SDS011;10835;50.148;19.760;2022-10-15T14:47:13;23.85;;;8.15;;
21354;SDS011;10835;50.148;19.760;2022-10-15T14:49:45;8.15;;;4.25;;
21354;SDS011;10835;50.148;19.760;2022-10-15T14:52:15;10.43;;;4.38;;
21354;SDS011;10835;50.148;19.760;2022-10-15T14:54:46;8.75;;;4.93;;
21354;SDS011;10835;50.148;19.760;2022-10-15T14:57:24;6.90;;;4.13;;
21354;SDS011;10835;50.148;19.760;2022-10-15T14:59:57;8.77;;;4.97;;
21354;SDS011;10835;50.148;19.760;2022-10-15T15:02:28;10.70;;;5.50;;
21354;SDS011;10835;50.148;19.760;2022-10-15T15:05:05;13.23;;;4.90;;
21354;SDS011;10835;50.148;19.760;2022-10-15T15:07:35;10.68;;;4.93;;
21354;SDS011;10835;50.148;19.760;2022-10-15T15:10:04;9.73;;;5.00;;
21354;SDS011;10835;50.148;19.760;2022-10-15T15:12:33;7.72;;;4.68;;
21354;SDS011;10835;50.148;19.760;2022-10-15T15:15:02;6.57;;;4.50;;
21354;SDS011;10835;50.148;19.760;2022-10-15T15:17:32;10.48;;;4.63;;
21354;SDS011;10835;50.148;19.760;2022-10-15T15:20:00;6.97;;;4.80;;
21354;SDS011;10835;50.148;19.760;2022-10-15T15:22:33;11.77;;;4.43;;